Time;durP1;ratioP1;P1;durP2;ratioP2;P2;SDS_P1;SDS_P2;PMS_P1;PMS_P2;Temp;Humidity;BMP_temperature;BMP_pressure;BME280_temperature;BME280_humidity;BME280_pressure;Samples;Min_cycle;Max_cycle;Signal;HPM_P1;HPM_P2
2022/01/26 00:06:05;;;;;;;26.10;11.13;;;5.20;99.90;;;;;;5095589;28;20036;-50
2022/01/26 00:08:30;;;;;;;29.13;11.73;;;5.20;99.90;;;;;;5093659;28;20027;-55
2022/01/26 00:10:56;;;;;;;27.50;11.18;;;5.10;99.90;;;;;;5094922;28;20021;-50
2022/01/26 00:13:22;;;;;;;33.05;14.43;;;5.10;99.90;;;;;;5094970;28;20021;-53
2022/01/26 00:15:48;;;;;;;34.47;14.50;;;5.10;99.90;;;;;;5093677;28;20020;-49
2022/01/26 00:18:15;;;;;;;29.40;9.77;;;5.10;99.90;;;;;;5093826;28;20051;-50
2022/01/26 00:20:55;;;;;;;32.53;13.65;;;5.40;99.90;;;;;;5094817;28;20055;-52
2022/01/26 00:28:46;;;;;;;29.30;12.15;;;5.10;99.90;;;;;;5094657;28;20016;-49
2022/01/26 00:31:59;;;;;;;41.08;15.30;;;5.00;99.90;;;;;;5093235;28;20077;-53
2022/01/26 00:38:34;;;;;;;32.33;11.88;;;5.10;99.90;;;;;;5094431;28;20031;-50
2022/01/26 00:40:20;;;;;;;32.65;11.82;;;5.20;99.90;;;;;;5094450;28;20120;-50
2022/01/26 00:42:48;;;;;;;35.35;13.07;;;5.00;99.90;;;;;;5093187;28;20487;-49
2022/01/26 00:45:19;;;;;;;40.25;13.57;;;5.00;99.90;;;;;;5094286;28;20031;-50
2022/01/26 00:47:45;;;;;;;37.30;12.88;;;5.00;99.90;;;;;;5093035;28;20076;-50
2022/01/26 00:50:12;;;;;;;33.83;11.75;;;5.00;99.90;;;;;;5094121;28;20110;-52
2022/01/26 00:52:43;;;;;;;35.70;13.07;;;5.00;99.90;;;;;;5093018;28;20054;-50
2022/01/26 00:55:11;;;;;;;36.53;13.73;;;5.00;99.90;;;;;;5093077;28;20138;-50
2022/01/26 00:57:37;;;;;;;45.90;14.90;;;4.90;99.90;;;;;;5092966;28;20077;-51
2022/01/26 01:00:10;;;;;;;38.15;15.38;;;4.90;99.90;;;;;;5094064;28;20024;-52
2022/01/26 01:02:35;;;;;;;39.92;15.00;;;5.00;99.90;;;;;;5092827;28;20031;-50
2022/01/26 01:05:07;;;;;;;37.97;14.57;;;4.90;99.90;;;;;;5094216;28;20020;-51
2022/01/26 01:07:37;;;;;;;46.80;15.73;;;4.90;99.90;;;;;;5093232;28;20024;-50
2022/01/26 01:10:03;;;;;;;34.08;13.77;;;5.00;99.90;;;;;;5093881;28;20027;-50
2022/01/26 01:12:30;;;;;;;38.55;13.48;;;5.00;99.90;;;;;;5093846;28;20046;-54
2022/01/26 01:14:56;;;;;;;30.45;11.40;;;5.10;99.90;;;;;;5092862;28;20111;-51
2022/01/26 01:17:25;;;;;;;33.08;12.30;;;5.20;99.90;;;;;;5093771;28;20483;-50
2022/01/26 01:20:50;;;;;;;31.85;12.43;;;5.10;99.90;;;;;;5093741;28;20020;-49
2022/01/26 01:30:45;;;;;;;35.97;14.63;;;5.00;99.90;;;;;;5094139;28;20120;-52
2022/01/26 01:33:17;;;;;;;30.48;12.18;;;5.10;99.90;;;;;;5092343;28;20020;-49
2022/01/26 01:35:44;;;;;;;31.23;12.18;;;5.10;99.90;;;;;;5093839;28;20020;-51
2022/01/26 01:38:16;;;;;;;41.92;14.10;;;5.20;99.90;;;;;;5092750;28;20054;-50
2022/01/26 01:40:47;;;;;;;34.65;12.77;;;5.20;99.90;;;;;;5092974;28;20028;-50
2022/01/26 01:43:14;;;;;;;35.28;13.50;;;5.10;99.90;;;;;;5092211;28;20028;-50
2022/01/26 01:45:48;;;;;;;33.10;12.05;;;5.10;99.90;;;;;;5093386;28;20028;-50
2022/01/26 01:48:18;;;;;;;29.17;12.55;;;5.20;99.90;;;;;;5093317;28;20050;-53
2022/01/26 01:50:45;;;;;;;29.13;11.38;;;5.20;99.90;;;;;;5093028;28;20052;-51
2022/01/26 01:53:12;;;;;;;30.35;11.23;;;5.20;99.90;;;;;;5092019;28;20115;-50
2022/01/26 01:55:40;;;;;;;25.80;11.02;;;5.10;99.90;;;;;;5093168;28;20032;-51
2022/01/26 01:58:06;;;;;;;29.55;12.27;;;5.10;99.90;;;;;;5092635;28;20024;-50
2022/01/26 02:00:33;;;;;;;29.70;11.25;;;5.10;99.90;;;;;;5091979;28;20049;-51
2022/01/26 02:03:00;;;;;;;29.30;11.18;;;5.10;99.90;;;;;;5092440;28;20058;-50
2022/01/26 02:05:26;;;;;;;33.78;12.45;;;5.20;99.90;;;;;;5093157;28;20016;-50
2022/01/26 02:07:51;;;;;;;28.13;10.52;;;5.20;99.90;;;;;;5092442;28;20185;-51
2022/01/26 02:10:17;;;;;;;28.42;10.95;;;5.30;99.90;;;;;;5092175;28;20027;-50
2022/01/26 02:12:48;;;;;;;30.42;11.77;;;5.10;99.90;;;;;;5093033;28;20095;-53
2022/01/26 02:15:21;;;;;;;31.17;12.98;;;5.00;99.90;;;;;;5092589;28;20105;-51
2022/01/26 02:55:40;;;;;;;21.98;9.95;;;5.10;99.90;;;;;;5075081;28;20036;-50
2022/01/26 03:05:45;;;;;;;25.85;10.38;;;5.10;99.90;;;;;;5096606;28;20032;-50
2022/01/26 03:08:11;;;;;;;25.45;10.55;;;5.20;99.90;;;;;;5094827;28;20020;-50
2022/01/26 03:10:46;;;;;;;26.38;9.38;;;5.10;99.90;;;;;;5095704;28;20024;-50
2022/01/26 03:13:20;;;;;;;27.55;9.95;;;5.00;99.90;;;;;;5096389;28;20016;-50
2022/01/26 03:15:52;;;;;;;21.02;9.48;;;5.00;99.90;;;;;;5096109;28;20514;-50
2022/01/26 03:20:58;;;;;;;20.02;8.43;;;5.00;99.90;;;;;;5096585;28;20040;-50
2022/01/26 03:34:15;;;;;;;20.38;9.05;;;5.00;99.90;;;;;;5096033;28;20502;-50
2022/01/26 03:39:19;;;;;;;22.55;8.60;;;4.90;99.90;;;;;;5095760;28;20024;-50
2022/01/26 03:44:11;;;;;;;17.83;8.43;;;4.90;99.90;;;;;;5095853;28;20052;-52
2022/01/26 03:46:37;;;;;;;21.58;10.05;;;4.70;99.90;;;;;;5094050;28;20059;-50
2022/01/26 03:49:04;;;;;;;26.33;9.90;;;4.80;99.90;;;;;;5094467;28;20025;-49
2022/01/26 03:51:30;;;;;;;23.02;9.93;;;4.90;99.90;;;;;;5094245;28;20437;-51
2022/01/26 03:53:56;;;;;;;22.38;9.75;;;4.70;99.90;;;;;;5095316;28;20052;-49
2022/01/26 03:56:22;;;;;;;24.45;10.07;;;4.70;99.90;;;;;;5094374;28;20040;-49
2022/01/26 03:58:47;;;;;;;20.30;9.05;;;4.60;99.90;;;;;;5095190;28;20030;-49
2022/01/26 04:01:13;;;;;;;22.98;9.88;;;4.70;99.90;;;;;;5094896;28;20024;-50
2022/01/26 04:03:39;;;;;;;19.70;9.25;;;4.70;99.90;;;;;;5093887;28;20020;-49
2022/01/26 04:06:04;;;;;;;22.60;8.90;;;4.80;99.90;;;;;;5094090;28;20028;-50
2022/01/26 04:08:32;;;;;;;21.02;9.25;;;4.90;99.90;;;;;;5093709;28;20020;-50
2022/01/26 04:13:36;;;;;;;18.33;8.48;;;4.60;99.90;;;;;;5094987;28;20020;-50
2022/01/26 04:16:02;;;;;;;20.95;9.10;;;4.50;99.90;;;;;;5094823;28;20059;-52
2022/01/26 04:18:35;;;;;;;21.27;9.30;;;4.60;99.90;;;;;;5094829;28;20078;-51
2022/01/26 04:21:09;;;;;;;20.25;8.85;;;4.60;99.90;;;;;;5095361;28;20027;-51
2022/01/26 04:23:44;;;;;;;18.30;8.70;;;4.70;99.90;;;;;;5094376;28;20031;-51
2022/01/26 04:26:11;;;;;;;21.13;10.95;;;4.40;99.90;;;;;;5093565;28;20028;-50
2022/01/26 04:28:55;;;;;;;21.50;9.45;;;4.30;99.90;;;;;;5093300;28;20150;-50
2022/01/26 04:31:22;;;;;;;22.77;9.25;;;4.20;99.90;;;;;;5094945;28;20024;-50
2022/01/26 04:33:48;;;;;;;23.73;10.50;;;4.40;99.90;;;;;;5093343;28;20025;-52
2022/01/26 04:36:19;;;;;;;25.73;10.00;;;4.40;99.90;;;;;;5093361;28;20028;-52
2022/01/26 04:38:51;;;;;;;24.15;10.30;;;4.30;99.90;;;;;;5093138;28;20024;-55
2022/01/26 04:41:41;;;;;;;24.65;9.75;;;4.30;99.90;;;;;;5094128;28;20119;-49
2022/01/26 04:44:28;;;;;;;20.35;9.02;;;4.40;99.90;;;;;;5094664;28;20039;-50
2022/01/26 04:46:54;;;;;;;22.70;9.50;;;4.40;99.90;;;;;;5092958;28;20073;-50
2022/01/26 04:49:20;;;;;;;23.80;9.65;;;4.50;99.90;;;;;;5093289;28;20016;-51
2022/01/26 04:51:46;;;;;;;19.52;9.55;;;4.60;99.90;;;;;;5092978;28;20020;-50
2022/01/26 04:54:12;;;;;;;24.90;9.82;;;4.60;99.90;;;;;;5094266;28;20032;-52
2022/01/26 04:56:38;;;;;;;20.98;9.32;;;4.70;99.90;;;;;;5094013;28;20065;-52
2022/01/26 04:59:04;;;;;;;22.15;9.07;;;4.50;99.90;;;;;;5092889;28;20028;-49
2022/01/26 05:01:29;;;;;;;22.58;9.60;;;4.50;99.90;;;;;;5094052;28;20056;-50
2022/01/26 05:03:55;;;;;;;24.15;9.52;;;4.60;99.90;;;;;;5093134;28;20059;-51
2022/01/26 05:06:21;;;;;;;25.45;9.43;;;4.50;99.90;;;;;;5092651;28;20115;-51
2022/01/26 05:08:46;;;;;;;19.98;9.65;;;4.40;99.90;;;;;;5093854;28;20024;-50
2022/01/26 05:11:18;;;;;;;24.15;10.45;;;4.40;99.90;;;;;;5093917;28;20070;-49
2022/01/26 05:13:43;;;;;;;28.38;11.52;;;4.40;99.90;;;;;;5094190;28;20020;-49
2022/01/26 05:16:10;;;;;;;22.15;9.18;;;4.30;99.90;;;;;;5093428;28;20149;-49
2022/01/26 05:18:35;;;;;;;25.13;10.93;;;4.30;99.90;;;;;;5092556;28;20028;-49
2022/01/26 05:21:02;;;;;;;23.55;9.40;;;4.20;99.90;;;;;;5092741;28;20032;-50
2022/01/26 05:23:27;;;;;;;23.77;10.23;;;4.30;99.90;;;;;;5092472;28;20030;-50
2022/01/26 05:25:53;;;;;;;20.77;8.95;;;4.30;99.90;;;;;;5093503;28;20103;-50
2022/01/26 05:28:19;;;;;;;23.58;9.65;;;4.30;99.90;;;;;;5092314;28;20046;-49
2022/01/26 05:30:44;;;;;;;25.95;10.10;;;4.30;99.90;;;;;;5092360;28;20016;-50
2022/01/26 05:33:10;;;;;;;23.83;9.70;;;4.30;99.90;;;;;;5092886;28;20046;-49
2022/01/26 05:35:36;;;;;;;27.33;9.82;;;4.30;99.90;;;;;;5092630;28;20036;-50
2022/01/26 05:38:02;;;;;;;25.23;10.55;;;4.40;99.90;;;;;;5094074;28;20034;-50
2022/01/26 05:40:27;;;;;;;26.77;11.85;;;4.30;99.90;;;;;;5093473;28;20043;-50
2022/01/26 05:42:53;;;;;;;25.50;10.32;;;4.30;99.90;;;;;;5093657;28;20026;-51
2022/01/26 05:45:29;;;;;;;24.88;10.95;;;4.40;99.90;;;;;;5093474;28;20027;-50
2022/01/26 05:47:55;;;;;;;24.52;9.43;;;4.40;99.90;;;;;;5093686;28;20064;-49
2022/01/26 05:50:21;;;;;;;26.75;9.35;;;4.20;99.90;;;;;;5093235;28;20020;-50
2022/01/26 05:52:47;;;;;;;22.35;9.60;;;4.20;99.90;;;;;;5092032;28;20028;-50
2022/01/26 05:55:13;;;;;;;30.13;10.88;;;4.20;99.90;;;;;;5093239;28;20020;-51
2022/01/26 05:57:39;;;;;;;20.92;9.25;;;4.20;99.90;;;;;;5093249;28;20024;-51
2022/01/26 06:00:05;;;;;;;23.63;9.52;;;4.20;99.90;;;;;;5093266;28;20114;-52
2022/01/26 06:02:32;;;;;;;24.55;9.93;;;4.30;99.90;;;;;;5093577;28;20205;-50
2022/01/26 06:04:58;;;;;;;25.38;10.35;;;4.20;99.90;;;;;;5092192;28;20028;-52
2022/01/26 06:07:23;;;;;;;24.05;10.30;;;4.30;99.90;;;;;;5091813;28;20024;-49
2022/01/26 06:09:49;;;;;;;28.08;10.40;;;4.40;99.90;;;;;;5093464;28;20047;-49
2022/01/26 06:12:14;;;;;;;35.00;11.43;;;4.40;99.90;;;;;;5091942;28;20029;-54
2022/01/26 06:14:40;;;;;;;26.55;10.80;;;4.30;99.90;;;;;;5093393;28;20020;-52
2022/01/26 06:17:07;;;;;;;27.80;11.45;;;4.30;99.90;;;;;;5092392;28;20522;-49
2022/01/26 06:19:33;;;;;;;31.83;11.65;;;4.20;99.90;;;;;;5092145;28;20025;-50
2022/01/26 06:21:58;;;;;;;37.35;11.85;;;4.30;99.90;;;;;;5091771;28;20024;-50
2022/01/26 06:24:24;;;;;;;33.75;12.57;;;4.30;99.90;;;;;;5091858;28;20028;-50
2022/01/26 06:26:50;;;;;;;44.30;14.45;;;4.20;99.90;;;;;;5092943;28;20062;-50
2022/01/26 06:29:15;;;;;;;28.67;11.93;;;4.40;99.90;;;;;;5095551;28;20016;-50
2022/01/26 06:31:43;;;;;;;28.10;11.48;;;4.30;99.90;;;;;;5095794;28;20554;-50
2022/01/26 06:34:11;;;;;;;30.63;11.57;;;4.40;99.90;;;;;;5095644;28;20027;-49
2022/01/26 06:37:28;;;;;;;29.85;11.85;;;4.50;99.90;;;;;;5097109;28;20024;-49
2022/01/26 06:39:54;;;;;;;28.20;10.20;;;4.50;99.90;;;;;;5096442;28;20021;-52
2022/01/26 06:42:25;;;;;;;30.33;12.10;;;4.60;99.90;;;;;;5095511;28;20032;-49
2022/01/26 06:45:05;;;;;;;47.22;17.27;;;4.60;99.90;;;;;;5096757;28;20044;-50
2022/01/26 06:47:48;;;;;;;38.25;12.88;;;4.40;99.90;;;;;;5096874;28;20158;-53
2022/01/26 06:50:14;;;;;;;34.42;11.80;;;4.50;99.90;;;;;;5096263;28;20028;-51
2022/01/26 06:52:43;;;;;;;31.83;12.05;;;4.40;99.90;;;;;;5096512;28;20048;-50
2022/01/26 06:55:09;;;;;;;34.00;12.75;;;4.50;99.90;;;;;;5095586;28;20020;-50
2022/01/26 06:57:35;;;;;;;37.75;14.70;;;4.40;99.90;;;;;;5096589;28;20108;-49
2022/01/26 07:00:00;;;;;;;32.72;12.88;;;4.30;99.90;;;;;;5095143;28;20043;-50
2022/01/26 07:02:26;;;;;;;55.55;18.10;;;4.30;99.90;;;;;;5096558;28;20032;-51
2022/01/26 07:04:51;;;;;;;38.05;13.40;;;4.40;99.90;;;;;;5095967;28;20097;-52
2022/01/26 07:07:17;;;;;;;38.38;13.38;;;4.40;99.90;;;;;;5095292;28;20024;-52
2022/01/26 07:09:43;;;;;;;40.33;14.82;;;4.40;99.90;;;;;;5094944;28;20023;-54
2022/01/26 07:12:08;;;;;;;37.13;14.48;;;4.40;99.90;;;;;;5095291;28;20043;-49
2022/01/26 07:22:47;;;;;;;38.72;13.93;;;4.40;99.90;;;;;;5096049;28;20097;-51
2022/01/26 07:25:12;;;;;;;47.53;15.32;;;4.40;99.90;;;;;;5095902;28;20085;-50
2022/01/26 07:27:38;;;;;;;39.25;14.80;;;4.40;99.90;;;;;;5094804;28;20024;-49
2022/01/26 07:30:06;;;;;;;36.53;13.63;;;4.30;99.90;;;;;;5094552;28;20074;-50
2022/01/26 07:32:34;;;;;;;43.03;15.10;;;4.30;99.90;;;;;;5095590;28;20024;-52
2022/01/26 07:35:00;;;;;;;40.47;15.07;;;4.40;99.90;;;;;;5095733;28;20039;-51
2022/01/26 07:37:25;;;;;;;35.92;13.60;;;4.50;99.90;;;;;;5095665;28;20073;-49
2022/01/26 07:40:06;;;;;;;44.30;15.70;;;4.50;99.90;;;;;;5095323;28;20055;-52
2022/01/26 07:42:32;;;;;;;40.20;14.57;;;4.50;99.90;;;;;;5094406;28;20028;-50
2022/01/26 07:44:58;;;;;;;43.78;14.82;;;4.40;99.90;;;;;;5094240;28;20023;-54
2022/01/26 07:47:24;;;;;;;38.70;13.48;;;4.50;99.90;;;;;;5095414;28;20024;-52
2022/01/26 07:49:53;;;;;;;44.22;14.25;;;4.50;99.90;;;;;;5095713;28;20074;-51
2022/01/26 07:52:19;;;;;;;39.42;15.50;;;4.60;99.90;;;;;;5094413;28;20027;-50
2022/01/26 07:54:47;;;;;;;44.17;16.15;;;4.60;99.90;;;;;;5094095;28;20107;-50
2022/01/26 07:57:13;;;;;;;55.35;17.00;;;4.60;99.90;;;;;;5093808;28;20032;-50
2022/01/26 07:59:38;;;;;;;46.17;15.80;;;4.60;99.90;;;;;;5095273;28;20031;-52
2022/01/26 08:02:04;;;;;;;45.53;16.95;;;4.60;99.90;;;;;;5095238;28;20024;-51
2022/01/26 08:04:30;;;;;;;50.45;15.93;;;4.60;99.90;;;;;;5093852;28;20024;-51
2022/01/26 08:06:55;;;;;;;52.53;17.20;;;4.60;99.90;;;;;;5093635;28;20032;-50
2022/01/26 08:09:21;;;;;;;46.65;15.15;;;4.60;99.90;;;;;;5095022;28;20107;-50
2022/01/26 08:11:46;;;;;;;46.85;15.38;;;4.80;99.90;;;;;;5094934;28;20028;-50
2022/01/26 08:14:12;;;;;;;42.97;14.38;;;4.90;99.90;;;;;;5094957;28;20051;-51
2022/01/26 08:16:39;;;;;;;38.63;13.77;;;4.80;99.90;;;;;;5093622;28;20494;-52
2022/01/26 08:19:04;;;;;;;50.83;15.98;;;4.70;99.90;;;;;;5094479;28;20024;-54
2022/01/26 08:21:30;;;;;;;46.75;15.82;;;4.70;99.90;;;;;;5093496;28;20031;-52
2022/01/26 08:24:02;;;;;;;44.75;16.15;;;4.70;99.90;;;;;;5094731;28;20026;-51
2022/01/26 08:26:37;;;;;;;;;;;4.60;99.90;;;;;;5095462;28;20032;-52
2022/01/26 08:29:06;;;;;;;46.35;15.93;;;4.60;99.90;;;;;;5093508;28;19911;-49
2022/01/26 08:31:32;;;;;;;43.08;15.07;;;4.60;99.90;;;;;;5095171;28;20024;-52
2022/01/26 08:33:57;;;;;;;47.08;14.93;;;4.70;99.90;;;;;;5094807;28;20069;-49
2022/01/26 08:36:23;;;;;;;39.85;13.63;;;4.70;99.90;;;;;;5094536;28;20024;-50
2022/01/26 08:38:48;;;;;;;54.67;17.60;;;4.70;99.90;;;;;;5094688;28;20027;-50
2022/01/26 08:41:14;;;;;;;46.90;15.60;;;4.70;99.90;;;;;;5094446;28;20028;-50
2022/01/26 08:43:40;;;;;;;52.10;16.67;;;4.80;99.90;;;;;;5094689;28;20103;-49
2022/01/26 08:46:05;;;;;;;46.42;17.17;;;4.80;99.90;;;;;;5094481;28;20376;-51
2022/01/26 08:48:31;;;;;;;53.78;17.30;;;4.80;99.90;;;;;;5093054;28;20024;-52
2022/01/26 08:50:57;;;;;;;42.80;17.23;;;4.70;99.90;;;;;;5092521;28;20039;-50
2022/01/26 08:53:23;;;;;;;54.17;16.70;;;4.80;99.90;;;;;;5094343;28;20031;-48
2022/01/26 08:55:51;;;;;;;51.05;16.48;;;4.90;99.90;;;;;;5092712;28;20024;-48
2022/01/26 08:58:17;;;;;;;44.83;15.20;;;4.90;99.90;;;;;;5092826;28;20027;-48
2022/01/26 09:00:51;;;;;;;43.88;16.10;;;5.00;99.90;;;;;;5092801;28;20017;-51
2022/01/26 09:03:16;;;;;;;40.33;15.00;;;5.00;99.90;;;;;;5092910;28;20027;-52
2022/01/26 09:05:42;;;;;;;39.83;14.70;;;5.00;99.90;;;;;;5094271;28;20024;-50
2022/01/26 09:08:08;;;;;;;42.13;16.50;;;5.00;99.90;;;;;;5093850;28;20035;-49
2022/01/26 09:10:34;;;;;;;40.92;15.23;;;5.00;99.90;;;;;;5093900;28;20024;-51
2022/01/26 09:13:01;;;;;;;44.22;17.95;;;5.00;99.90;;;;;;5093957;28;20020;-51
2022/01/26 09:15:29;;;;;;;45.83;16.67;;;5.00;99.90;;;;;;5094695;28;20020;-50
2022/01/26 09:17:56;;;;;;;60.05;20.92;;;5.00;99.90;;;;;;5092815;28;20024;-53
2022/01/26 09:20:22;;;;;;;53.17;18.25;;;5.00;99.90;;;;;;5092496;28;20115;-50
2022/01/26 09:22:48;;;;;;;46.05;16.65;;;5.00;99.90;;;;;;5093552;28;20048;-50
2022/01/26 09:25:13;;;;;;;43.92;14.77;;;5.10;99.90;;;;;;5093959;28;20042;-50
2022/01/26 09:27:39;;;;;;;54.70;18.80;;;5.10;99.90;;;;;;5093747;28;20032;-52
2022/01/26 09:30:06;;;;;;;51.05;18.42;;;5.10;99.90;;;;;;5092358;28;20020;-50
2022/01/26 09:32:31;;;;;;;54.42;19.92;;;5.10;99.90;;;;;;5093783;28;20016;-51
2022/01/26 09:34:57;;;;;;;44.00;17.73;;;5.10;99.90;;;;;;5092434;28;20030;-50
2022/01/26 09:37:22;;;;;;;47.40;17.80;;;5.00;99.90;;;;;;5092508;28;20032;-50
2022/01/26 09:39:49;;;;;;;63.22;20.33;;;5.00;99.90;;;;;;5093427;28;20024;-50
2022/01/26 09:45:36;;;;;;;51.90;21.90;;;5.00;99.90;;;;;;5093739;28;20038;-50
2022/01/26 09:48:04;;;;;;;53.15;19.65;;;5.10;99.90;;;;;;5093281;28;20738;-51
2022/01/26 09:50:30;;;;;;;70.65;21.77;;;5.00;99.90;;;;;;5093371;28;20035;-48
2022/01/26 09:52:57;;;;;;;51.75;17.75;;;5.10;99.90;;;;;;5092080;28;20024;-52
2022/01/26 09:55:23;;;;;;;45.55;16.33;;;5.20;99.90;;;;;;5092832;28;20111;-52
2022/01/26 09:57:49;;;;;;;44.00;16.60;;;5.40;99.90;;;;;;5093583;28;20075;-51
2022/01/26 10:00:15;;;;;;;45.33;15.68;;;5.40;99.90;;;;;;5092330;28;20138;-52
2022/01/26 10:02:44;;;;;;;44.95;15.05;;;5.30;99.90;;;;;;5094899;28;20020;-50
2022/01/26 10:05:16;;;;;;;43.83;16.67;;;5.40;99.90;;;;;;5097446;28;20056;-49
2022/01/26 10:07:57;;;;;;;47.97;16.92;;;5.50;99.90;;;;;;5097453;28;20020;-49
2022/01/26 10:15:43;;;;;;;54.22;18.25;;;5.40;99.90;;;;;;5097540;28;20035;-48
2022/01/26 10:18:16;;;;;;;56.30;19.80;;;5.30;99.90;;;;;;5096379;28;20051;-51
2022/01/26 10:20:58;;;;;;;52.47;16.38;;;5.30;99.90;;;;;;5096813;28;20042;-49
2022/01/26 10:23:26;;;;;;;54.00;18.42;;;5.40;99.90;;;;;;5097381;28;20044;-49
2022/01/26 10:26:01;;;;;;;47.45;17.20;;;5.40;99.90;;;;;;5096310;28;20020;-48
2022/01/26 10:28:38;;;;;;;53.33;17.52;;;5.40;99.90;;;;;;5096925;28;20108;-47
2022/01/26 10:31:14;;;;;;;57.40;18.60;;;5.40;99.90;;;;;;5097111;28;20025;-49
2022/01/26 10:33:51;;;;;;;47.10;16.50;;;5.40;99.90;;;;;;5097329;28;20016;-50
2022/01/26 10:36:16;;;;;;;55.85;18.65;;;5.40;99.90;;;;;;5096865;28;20032;-50
2022/01/26 10:38:44;;;;;;;53.35;17.73;;;5.30;99.90;;;;;;5097146;28;20024;-49
2022/01/26 10:41:22;;;;;;;55.60;19.50;;;5.30;99.90;;;;;;5097291;28;20043;-48
2022/01/26 10:43:50;;;;;;;50.90;16.85;;;5.40;99.90;;;;;;5095498;28;20092;-54
2022/01/26 10:46:27;;;;;;;43.97;15.55;;;5.40;99.90;;;;;;5096656;28;20020;-49
2022/01/26 10:51:59;;;;;;;47.33;16.02;;;5.40;99.90;;;;;;5084384;28;20025;-47
2022/01/26 10:54:38;;;;;;;45.03;14.88;;;5.50;99.90;;;;;;5096546;28;20034;-47
2022/01/26 10:57:10;;;;;;;44.65;15.27;;;5.50;99.90;;;;;;5096326;28;20059;-47
2022/01/26 10:59:39;;;;;;;46.30;16.25;;;5.50;99.90;;;;;;5096937;28;20099;-49
2022/01/26 11:02:05;;;;;;;50.80;17.65;;;5.50;99.90;;;;;;5096376;28;20055;-47
2022/01/26 11:04:42;;;;;;;47.10;17.00;;;5.40;99.90;;;;;;5096307;28;20074;-48
2022/01/26 11:07:13;;;;;;;47.70;16.55;;;5.50;99.90;;;;;;5094948;28;20035;-48
2022/01/26 11:09:42;;;;;;;45.78;17.27;;;5.50;99.90;;;;;;5095631;28;20027;-47
2022/01/26 11:12:10;;;;;;;44.60;15.40;;;5.50;99.90;;;;;;5096225;28;20031;-49
2022/01/26 11:14:56;;;;;;;47.65;14.65;;;5.60;99.90;;;;;;5095664;28;20051;-47
2022/01/26 11:17:30;;;;;;;41.22;13.52;;;5.70;99.90;;;;;;5094878;28;20032;-47
2022/01/26 11:19:57;;;;;;;42.67;14.05;;;5.70;99.90;;;;;;5096096;28;20027;-47
2022/01/26 11:22:28;;;;;;;41.72;14.45;;;5.70;99.90;;;;;;5095035;28;20024;-47
2022/01/26 11:25:06;;;;;;;36.85;14.23;;;5.80;99.90;;;;;;5095967;28;20436;-48
2022/01/26 11:27:35;;;;;;;50.92;17.38;;;5.70;99.90;;;;;;5095702;28;20016;-47
2022/01/26 11:30:14;;;;;;;52.85;15.90;;;5.60;99.90;;;;;;5095848;28;20020;-46
2022/01/26 11:32:50;;;;;;;50.03;16.65;;;5.70;99.90;;;;;;5096136;28;20095;-48
2022/01/26 11:35:16;;;;;;;42.67;14.77;;;5.70;99.90;;;;;;5095772;28;20087;-47
2022/01/26 11:37:49;;;;;;;49.53;16.45;;;5.80;99.90;;;;;;5095754;28;20024;-46
2022/01/26 11:46:09;;;;;;;53.40;16.38;;;5.80;99.90;;;;;;5096048;28;20031;-50
2022/01/26 11:48:35;;;;;;;53.75;17.95;;;5.90;99.90;;;;;;5095340;28;20052;-49
2022/01/26 11:51:03;;;;;;;59.55;19.83;;;5.90;99.90;;;;;;5094224;28;20028;-47
2022/01/26 11:53:30;;;;;;;59.83;20.63;;;5.80;99.90;;;;;;5095404;28;20051;-54
2022/01/26 11:56:05;;;;;;;61.10;20.40;;;5.80;99.90;;;;;;5095175;28;20028;-47
2022/01/26 11:58:34;;;;;;;51.70;16.88;;;5.70;99.90;;;;;;5095481;28;20464;-48
2022/01/26 12:01:14;;;;;;;59.72;19.38;;;5.80;99.90;;;;;;5095498;28;20016;-48
2022/01/26 12:03:46;;;;;;;70.53;20.15;;;5.70;99.90;;;;;;5095165;28;20024;-49
2022/01/26 12:06:19;;;;;;;66.53;19.60;;;5.70;99.90;;;;;;5095437;28;20031;-47
2022/01/26 12:08:46;;;;;;;65.00;19.92;;;5.80;99.90;;;;;;5095165;28;20012;-47
2022/01/26 12:11:15;;;;;;;53.88;18.00;;;5.80;99.90;;;;;;5093845;28;20103;-51
2022/01/26 12:13:42;;;;;;;57.08;18.83;;;5.90;99.90;;;;;;5093905;28;20020;-47
2022/01/26 12:16:19;;;;;;;61.30;19.13;;;5.90;99.90;;;;;;5094108;28;20020;-50
2022/01/26 12:43:38;;;;;;;72.82;23.92;;;5.80;99.90;;;;;;5094988;28;20031;-51
2022/01/26 12:46:06;;;;;;;72.03;22.05;;;5.70;99.90;;;;;;5094555;28;20031;-51
2022/01/26 12:48:34;;;;;;;64.95;22.27;;;5.70;99.90;;;;;;5093231;28;20027;-47
2022/01/26 12:51:02;;;;;;;71.63;19.40;;;5.60;99.90;;;;;;5094262;28;20120;-46
2022/01/26 12:53:30;;;;;;;68.10;19.63;;;5.70;99.90;;;;;;5093074;28;20020;-46
2022/01/26 12:55:58;;;;;;;69.25;19.63;;;5.60;99.90;;;;;;5093106;28;20025;-50
2022/01/26 12:58:29;;;;;;;62.35;19.77;;;5.80;99.90;;;;;;5092888;28;20028;-45
2022/01/26 13:01:04;;;;;;;61.13;19.42;;;5.70;99.90;;;;;;5092905;28;20027;-47
2022/01/26 13:03:35;;;;;;;64.88;20.88;;;5.70;99.90;;;;;;5094122;28;20057;-47
2022/01/26 13:06:22;;;;;;;67.05;20.20;;;5.70;99.90;;;;;;5094405;28;20559;-51
2022/01/26 13:08:53;;;;;;;61.30;19.75;;;5.70;99.90;;;;;;5092780;28;20024;-53
2022/01/26 13:11:32;;;;;;;65.33;21.87;;;5.70;99.90;;;;;;5092882;28;20107;-50
2022/01/26 13:14:19;;;;;;;74.00;21.73;;;5.80;99.90;;;;;;5093874;28;20048;-45
2022/01/26 13:20:30;;;;;;;61.30;20.05;;;5.90;99.90;;;;;;5094180;28;20406;-51
2022/01/26 13:25:15;;;;;;;60.58;19.33;;;5.70;99.90;;;;;;5093776;28;20027;-50
2022/01/26 13:28:05;;;;;;;63.97;19.92;;;5.70;99.90;;;;;;5093646;28;20049;-47
2022/01/26 13:35:57;;;;;;;59.83;18.08;;;5.80;99.90;;;;;;5094094;28;20099;-45
2022/01/26 13:38:40;;;;;;;60.03;18.45;;;5.80;99.90;;;;;;5093191;28;20036;-46
2022/01/26 13:41:21;;;;;;;60.75;17.98;;;5.90;99.90;;;;;;5093467;28;20055;-50
2022/01/26 13:51:42;;;;;;;53.47;18.00;;;5.80;99.90;;;;;;5093464;28;20024;-46
2022/01/26 14:01:49;;;;;;;63.72;20.58;;;5.60;99.90;;;;;;5093704;28;20028;-49
2022/01/26 14:04:16;;;;;;;61.53;19.95;;;5.60;99.90;;;;;;5093927;28;20024;-46
2022/01/26 14:06:43;;;;;;;61.75;20.88;;;5.70;99.90;;;;;;5093078;28;20028;-51
2022/01/26 14:09:08;;;;;;;73.05;20.33;;;5.70;99.90;;;;;;5092022;28;20024;-46
2022/01/26 14:11:34;;;;;;;57.25;18.40;;;5.70;99.90;;;;;;5092405;28;20016;-47
2022/01/26 14:14:01;;;;;;;68.13;22.40;;;5.60;99.90;;;;;;5091985;28;20025;-49
2022/01/26 14:16:30;;;;;;;62.95;19.63;;;5.50;99.90;;;;;;5093160;28;20020;-46
2022/01/26 14:19:07;;;;;;;62.17;20.90;;;5.50;99.90;;;;;;5092088;28;20047;-50
2022/01/26 14:26:52;;;;;;;52.78;19.27;;;5.50;99.90;;;;;;5093209;28;20020;-47
2022/01/26 14:29:42;;;;;;;68.63;21.00;;;5.80;99.90;;;;;;5092113;28;20047;-46
2022/01/26 14:40:37;;;;;;;52.40;16.15;;;5.60;99.90;;;;;;5093470;28;20042;-51
2022/01/26 15:42:15;;;;;;;103.78;42.58;;;5.30;99.90;;;;;;5096250;28;20031;-47
2022/01/26 15:44:47;;;;;;;55.35;21.15;;;5.20;99.90;;;;;;5095639;28;20023;-49
2022/01/26 15:52:55;;;;;;;55.03;18.50;;;5.30;99.90;;;;;;5096072;28;20202;-50
2022/01/26 15:59:01;;;;;;;66.40;20.48;;;5.40;99.90;;;;;;5095736;28;20112;-51
2022/01/26 16:20:15;;;;;;;76.45;25.02;;;5.20;99.90;;;;;;5095243;28;20038;-48
2022/01/26 16:44:23;;;;;;;55.70;23.30;;;5.00;99.90;;;;;;5095173;28;20042;-47
2022/01/26 17:43:17;;;;;;;75.60;24.73;;;5.20;99.90;;;;;;5094205;28;20560;-49
2022/01/26 18:16:27;;;;;;;43.10;14.30;;;5.30;99.90;;;;;;5093647;28;20065;-50
2022/01/26 18:32:45;;;;;;;44.75;16.30;;;5.20;99.90;;;;;;5097575;28;20089;-47
2022/01/26 18:51:23;;;;;;;56.08;15.95;;;5.50;99.90;;;;;;5096945;28;20027;-50
2022/01/26 18:53:49;;;;;;;50.17;15.82;;;5.40;99.90;;;;;;5095345;28;20020;-49
2022/01/26 18:56:15;;;;;;;50.63;15.82;;;5.50;99.90;;;;;;5096849;28;20383;-47
2022/01/26 18:58:40;;;;;;;52.45;17.10;;;5.40;99.90;;;;;;5095332;28;20028;-47
2022/01/26 19:01:06;;;;;;;45.88;16.20;;;5.40;99.90;;;;;;5095301;28;20030;-51
2022/01/26 19:03:32;;;;;;;57.20;18.98;;;5.30;99.90;;;;;;5095715;28;20030;-52
2022/01/26 19:06:01;;;;;;;57.45;18.75;;;5.20;99.90;;;;;;5095053;28;20387;-49
2022/01/26 19:08:28;;;;;;;57.40;18.73;;;5.20;99.90;;;;;;5095874;28;20068;-56
2022/01/26 19:10:54;;;;;;;52.13;17.90;;;5.10;99.90;;;;;;5095100;28;20028;-50
2022/01/26 19:13:26;;;;;;;62.60;19.88;;;5.10;99.90;;;;;;5094968;28;20031;-53
2022/01/26 19:15:55;;;;;;;50.03;17.80;;;5.00;99.90;;;;;;5096295;28;20016;-53
2022/01/26 19:18:29;;;;;;;49.15;16.02;;;5.00;99.90;;;;;;5096080;28;20020;-50
2022/01/26 19:21:10;;;;;;;55.05;16.98;;;5.00;99.90;;;;;;5094888;28;20399;-54
2022/01/26 19:26:25;;;;;;;50.92;18.60;;;5.10;99.90;;;;;;5096603;28;20035;-53
2022/01/26 19:28:58;;;;;;;54.78;16.85;;;5.10;99.90;;;;;;5095726;28;20027;-55
2022/01/26 19:45:11;;;;;;;50.83;16.05;;;5.00;99.90;;;;;;5095750;28;20039;-54
2022/01/26 19:50:45;;;;;;;47.42;16.48;;;5.00;99.90;;;;;;5095023;28;20039;-54
2022/01/26 19:53:08;;;;;;;58.83;20.65;;;5.00;99.90;;;;;;5095718;28;20076;-54